Benton Ridge, Ohio
Current Conditions -  °F | °C
As of 2:20 AM on Friday 19 Dec 2014 (Local Time) from KFDY Reporting Station
Haze Haze  
Wind Chill: -6°   Ceiling: 1000
Heat Index: -2°   Visibility: 6mi
Dew Point: -4°   Wind: 9mph
Humidity: 82%   Direction: 260°W
Pressure: 30.2"   Gusts: NA
Location:  41°N, 83.79°W
Report Text: KFDY 190720Z AUTO 26008KT 6SM HZ OVC010 M02/M04 A3020 RMK AO2 T10171044
Loading
Personal Weather Stations






























Interactive Weather Map New forecast layout! Learn more

10-Day Weather Forecast

Advertisements
Track Severe Weather on mobile